sensor_id;sensor_type;location;lat;lon;timestamp;P1;durP1;ratioP1;P2;durP2;ratioP2
40284;SDS011;25997;50.214;19.354;2023-03-16T00:00:23;42.38;;;27.40;;
40284;SDS011;25997;50.214;19.354;2023-03-16T00:03:28;46.67;;;27.35;;
40284;SDS011;25997;50.214;19.354;2023-03-16T00:06:31;44.92;;;25.73;;
40284;SDS011;25997;50.214;19.354;2023-03-16T00:09:33;43.45;;;26.05;;
40284;SDS011;25997;50.214;19.354;2023-03-16T00:12:40;44.85;;;26.63;;
40284;SDS011;25997;50.214;19.354;2023-03-16T00:15:48;46.88;;;27.08;;
40284;SDS011;25997;50.214;19.354;2023-03-16T00:18:52;45.20;;;26.80;;
40284;SDS011;25997;50.214;19.354;2023-03-16T00:21:54;45.40;;;27.73;;
40284;SDS011;25997;50.214;19.354;2023-03-16T00:24:57;53.15;;;32.92;;
40284;SDS011;25997;50.214;19.354;2023-03-16T00:27:59;49.70;;;30.55;;
40284;SDS011;25997;50.214;19.354;2023-03-16T00:31:03;44.88;;;27.00;;
40284;SDS011;25997;50.214;19.354;2023-03-16T00:34:09;43.28;;;25.58;;
40284;SDS011;25997;50.214;19.354;2023-03-16T00:37:13;49.50;;;25.27;;
40284;SDS011;25997;50.214;19.354;2023-03-16T00:40:17;42.08;;;24.85;;
40284;SDS011;25997;50.214;19.354;2023-03-16T00:43:20;47.90;;;24.48;;
40284;SDS011;25997;50.214;19.354;2023-03-16T00:46:22;35.92;;;21.70;;
40284;SDS011;25997;50.214;19.354;2023-03-16T00:49:27;41.45;;;24.25;;
40284;SDS011;25997;50.214;19.354;2023-03-16T00:52:34;40.08;;;22.88;;
40284;SDS011;25997;50.214;19.354;2023-03-16T00:55:36;44.70;;;24.25;;
40284;SDS011;25997;50.214;19.354;2023-03-16T00:58:39;38.13;;;24.50;;
40284;SDS011;25997;50.214;19.354;2023-03-16T01:01:44;41.17;;;26.75;;
40284;SDS011;25997;50.214;19.354;2023-03-16T01:04:49;36.05;;;24.10;;
40284;SDS011;25997;50.214;19.354;2023-03-16T01:07:54;40.53;;;24.33;;
40284;SDS011;25997;50.214;19.354;2023-03-16T01:10:56;36.72;;;22.98;;
40284;SDS011;25997;50.214;19.354;2023-03-16T01:14:03;39.28;;;23.95;;
40284;SDS011;25997;50.214;19.354;2023-03-16T01:17:07;38.53;;;22.25;;
40284;SDS011;25997;50.214;19.354;2023-03-16T01:20:11;35.33;;;21.25;;
40284;SDS011;25997;50.214;19.354;2023-03-16T01:23:19;35.70;;;21.48;;
40284;SDS011;25997;50.214;19.354;2023-03-16T01:26:21;35.00;;;21.92;;
40284;SDS011;25997;50.214;19.354;2023-03-16T01:29:24;34.20;;;21.30;;
40284;SDS011;25997;50.214;19.354;2023-03-16T01:32:30;37.33;;;20.65;;
40284;SDS011;25997;50.214;19.354;2023-03-16T01:35:36;33.65;;;20.75;;
40284;SDS011;25997;50.214;19.354;2023-03-16T01:38:38;36.17;;;20.98;;
40284;SDS011;25997;50.214;19.354;2023-03-16T01:41:41;31.00;;;18.88;;
40284;SDS011;25997;50.214;19.354;2023-03-16T01:44:48;35.67;;;21.15;;
40284;SDS011;25997;50.214;19.354;2023-03-16T01:47:54;31.95;;;20.65;;
40284;SDS011;25997;50.214;19.354;2023-03-16T01:51:00;38.97;;;22.52;;
40284;SDS011;25997;50.214;19.354;2023-03-16T01:54:04;31.88;;;21.33;;
40284;SDS011;25997;50.214;19.354;2023-03-16T01:57:14;35.35;;;22.92;;
40284;SDS011;25997;50.214;19.354;2023-03-16T02:00:20;53.78;;;30.88;;
40284;SDS011;25997;50.214;19.354;2023-03-16T02:03:47;46.20;;;30.92;;
40284;SDS011;25997;50.214;19.354;2023-03-16T02:06:56;41.83;;;22.60;;
40284;SDS011;25997;50.214;19.354;2023-03-16T02:10:02;36.20;;;21.60;;
40284;SDS011;25997;50.214;19.354;2023-03-16T02:13:08;36.40;;;23.10;;
40284;SDS011;25997;50.214;19.354;2023-03-16T02:16:11;35.97;;;25.73;;
40284;SDS011;25997;50.214;19.354;2023-03-16T02:19:22;32.78;;;24.48;;
40284;SDS011;25997;50.214;19.354;2023-03-16T02:22:35;40.03;;;29.10;;
40284;SDS011;25997;50.214;19.354;2023-03-16T02:25:43;54.95;;;40.08;;
40284;SDS011;25997;50.214;19.354;2023-03-16T02:28:56;32.22;;;24.13;;
40284;SDS011;25997;50.214;19.354;2023-03-16T02:32:13;39.08;;;26.23;;
40284;SDS011;25997;50.214;19.354;2023-03-16T02:35:17;33.17;;;24.00;;
40284;SDS011;25997;50.214;19.354;2023-03-16T02:38:20;39.75;;;27.70;;
40284;SDS011;25997;50.214;19.354;2023-03-16T02:41:26;46.90;;;30.35;;
40284;SDS011;25997;50.214;19.354;2023-03-16T02:44:33;57.05;;;42.00;;
40284;SDS011;25997;50.214;19.354;2023-03-16T02:47:43;43.10;;;32.33;;
40284;SDS011;25997;50.214;19.354;2023-03-16T02:50:49;37.70;;;26.17;;
40284;SDS011;25997;50.214;19.354;2023-03-16T02:53:53;43.53;;;28.30;;
40284;SDS011;25997;50.214;19.354;2023-03-16T02:56:57;43.40;;;28.35;;
40284;SDS011;25997;50.214;19.354;2023-03-16T03:00:01;39.53;;;25.13;;
40284;SDS011;25997;50.214;19.354;2023-03-16T03:03:14;39.13;;;24.50;;
40284;SDS011;25997;50.214;19.354;2023-03-16T03:06:17;33.03;;;23.73;;
40284;SDS011;25997;50.214;19.354;2023-03-16T03:09:19;37.17;;;25.17;;
40284;SDS011;25997;50.214;19.354;2023-03-16T03:12:27;41.92;;;26.77;;
40284;SDS011;25997;50.214;19.354;2023-03-16T03:15:29;40.03;;;28.52;;
40284;SDS011;25997;50.214;19.354;2023-03-16T03:18:40;39.63;;;23.67;;
40284;SDS011;25997;50.214;19.354;2023-03-16T03:21:42;37.95;;;24.25;;
40284;SDS011;25997;50.214;19.354;2023-03-16T03:24:45;55.63;;;33.88;;
40284;SDS011;25997;50.214;19.354;2023-03-16T03:27:48;322.17;;;227.65;;
40284;SDS011;25997;50.214;19.354;2023-03-16T03:30:55;296.38;;;167.93;;
40284;SDS011;25997;50.214;19.354;2023-03-16T03:33:59;378.58;;;204.95;;
40284;SDS011;25997;50.214;19.354;2023-03-16T03:37:07;384.13;;;187.90;;
40284;SDS011;25997;50.214;19.354;2023-03-16T03:40:10;39.70;;;26.15;;
40284;SDS011;25997;50.214;19.354;2023-03-16T03:43:16;37.08;;;28.05;;
40284;SDS011;25997;50.214;19.354;2023-03-16T03:46:20;35.72;;;26.38;;
40284;SDS011;25997;50.214;19.354;2023-03-16T03:49:24;37.33;;;23.58;;
40284;SDS011;25997;50.214;19.354;2023-03-16T03:52:26;33.50;;;22.23;;
40284;SDS011;25997;50.214;19.354;2023-03-16T03:55:29;32.28;;;23.85;;
40284;SDS011;25997;50.214;19.354;2023-03-16T03:58:32;36.75;;;23.08;;
40284;SDS011;25997;50.214;19.354;2023-03-16T04:01:35;39.17;;;25.30;;
40284;SDS011;25997;50.214;19.354;2023-03-16T04:04:39;37.22;;;26.02;;
40284;SDS011;25997;50.214;19.354;2023-03-16T04:07:44;34.88;;;24.77;;
40284;SDS011;25997;50.214;19.354;2023-03-16T04:10:48;33.17;;;23.85;;
40284;SDS011;25997;50.214;19.354;2023-03-16T04:13:51;32.38;;;22.05;;
40284;SDS011;25997;50.214;19.354;2023-03-16T04:16:54;33.95;;;25.10;;
40284;SDS011;25997;50.214;19.354;2023-03-16T04:19:59;36.67;;;23.90;;
40284;SDS011;25997;50.214;19.354;2023-03-16T04:23:05;45.20;;;31.05;;
40284;SDS011;25997;50.214;19.354;2023-03-16T04:26:09;40.97;;;26.27;;
40284;SDS011;25997;50.214;19.354;2023-03-16T04:29:14;53.85;;;32.45;;
40284;SDS011;25997;50.214;19.354;2023-03-16T04:32:18;71.10;;;43.70;;
40284;SDS011;25997;50.214;19.354;2023-03-16T04:35:22;79.38;;;63.42;;
40284;SDS011;25997;50.214;19.354;2023-03-16T04:38:28;104.10;;;87.25;;
40284;SDS011;25997;50.214;19.354;2023-03-16T04:41:37;57.95;;;43.90;;
40284;SDS011;25997;50.214;19.354;2023-03-16T04:44:45;60.65;;;52.53;;
40284;SDS011;25997;50.214;19.354;2023-03-16T04:47:48;41.38;;;33.55;;
40284;SDS011;25997;50.214;19.354;2023-03-16T04:50:52;41.28;;;30.85;;
40284;SDS011;25997;50.214;19.354;2023-03-16T04:53:56;42.83;;;31.58;;
40284;SDS011;25997;50.214;19.354;2023-03-16T04:57:06;45.25;;;32.65;;
40284;SDS011;25997;50.214;19.354;2023-03-16T05:00:19;48.00;;;34.30;;
40284;SDS011;25997;50.214;19.354;2023-03-16T05:03:46;45.13;;;30.70;;
40284;SDS011;25997;50.214;19.354;2023-03-16T05:06:51;46.35;;;31.17;;
40284;SDS011;25997;50.214;19.354;2023-03-16T05:09:58;45.97;;;31.27;;
40284;SDS011;25997;50.214;19.354;2023-03-16T05:13:01;67.95;;;43.42;;
40284;SDS011;25997;50.214;19.354;2023-03-16T05:16:04;53.40;;;38.75;;
40284;SDS011;25997;50.214;19.354;2023-03-16T05:19:11;79.72;;;55.25;;
40284;SDS011;25997;50.214;19.354;2023-03-16T05:22:15;206.98;;;129.55;;
40284;SDS011;25997;50.214;19.354;2023-03-16T05:25:37;192.82;;;111.78;;
40284;SDS011;25997;50.214;19.354;2023-03-16T05:28:42;162.88;;;98.80;;
40284;SDS011;25997;50.214;19.354;2023-03-16T05:31:48;109.65;;;70.78;;
40284;SDS011;25997;50.214;19.354;2023-03-16T05:34:55;83.25;;;62.63;;
40284;SDS011;25997;50.214;19.354;2023-03-16T05:38:00;81.45;;;63.97;;
40284;SDS011;25997;50.214;19.354;2023-03-16T05:41:04;54.05;;;41.13;;
40284;SDS011;25997;50.214;19.354;2023-03-16T05:44:30;46.97;;;33.88;;
40284;SDS011;25997;50.214;19.354;2023-03-16T05:47:43;52.47;;;37.15;;
40284;SDS011;25997;50.214;19.354;2023-03-16T05:50:47;48.33;;;35.03;;
40284;SDS011;25997;50.214;19.354;2023-03-16T05:53:55;41.58;;;31.60;;
40284;SDS011;25997;50.214;19.354;2023-03-16T05:57:13;55.13;;;37.83;;
40284;SDS011;25997;50.214;19.354;2023-03-16T06:00:19;53.30;;;43.05;;
40284;SDS011;25997;50.214;19.354;2023-03-16T06:03:35;50.33;;;41.05;;
40284;SDS011;25997;50.214;19.354;2023-03-16T06:06:41;45.88;;;37.28;;
40284;SDS011;25997;50.214;19.354;2023-03-16T06:12:54;61.13;;;40.67;;
40284;SDS011;25997;50.214;19.354;2023-03-16T06:15:57;64.75;;;51.30;;
40284;SDS011;25997;50.214;19.354;2023-03-16T06:19:00;43.05;;;34.30;;
40284;SDS011;25997;50.214;19.354;2023-03-16T06:22:05;59.67;;;45.35;;
40284;SDS011;25997;50.214;19.354;2023-03-16T06:25:10;54.70;;;41.38;;
40284;SDS011;25997;50.214;19.354;2023-03-16T06:28:15;46.92;;;37.53;;
40284;SDS011;25997;50.214;19.354;2023-03-16T06:31:18;70.03;;;55.17;;
40284;SDS011;25997;50.214;19.354;2023-03-16T06:34:21;74.00;;;54.42;;
40284;SDS011;25997;50.214;19.354;2023-03-16T06:37:24;88.05;;;59.80;;
40284;SDS011;25997;50.214;19.354;2023-03-16T06:40:28;136.73;;;87.13;;
40284;SDS011;25997;50.214;19.354;2023-03-16T06:43:30;105.15;;;61.85;;
40284;SDS011;25997;50.214;19.354;2023-03-16T06:46:33;80.10;;;55.35;;
40284;SDS011;25997;50.214;19.354;2023-03-16T06:49:37;60.42;;;43.17;;
40284;SDS011;25997;50.214;19.354;2023-03-16T06:52:48;57.58;;;37.33;;
40284;SDS011;25997;50.214;19.354;2023-03-16T06:55:52;45.60;;;33.22;;
40284;SDS011;25997;50.214;19.354;2023-03-16T06:58:55;50.40;;;35.83;;
40284;SDS011;25997;50.214;19.354;2023-03-16T07:01:58;49.85;;;35.90;;
40284;SDS011;25997;50.214;19.354;2023-03-16T07:05:02;46.10;;;36.55;;
40284;SDS011;25997;50.214;19.354;2023-03-16T07:08:05;57.20;;;41.97;;
40284;SDS011;25997;50.214;19.354;2023-03-16T07:11:09;47.30;;;37.03;;
40284;SDS011;25997;50.214;19.354;2023-03-16T07:14:11;42.42;;;31.15;;
40284;SDS011;25997;50.214;19.354;2023-03-16T07:17:15;38.47;;;29.02;;
40284;SDS011;25997;50.214;19.354;2023-03-16T07:20:17;34.67;;;26.10;;
40284;SDS011;25997;50.214;19.354;2023-03-16T07:23:21;38.63;;;27.90;;
40284;SDS011;25997;50.214;19.354;2023-03-16T07:26:25;34.13;;;24.60;;
40284;SDS011;25997;50.214;19.354;2023-03-16T07:29:32;34.40;;;26.08;;
40284;SDS011;25997;50.214;19.354;2023-03-16T07:32:37;37.08;;;24.50;;
40284;SDS011;25997;50.214;19.354;2023-03-16T07:35:40;38.00;;;27.65;;
40284;SDS011;25997;50.214;19.354;2023-03-16T07:38:43;35.95;;;25.35;;
40284;SDS011;25997;50.214;19.354;2023-03-16T07:41:48;35.17;;;25.05;;
40284;SDS011;25997;50.214;19.354;2023-03-16T07:45:02;33.75;;;23.70;;
40284;SDS011;25997;50.214;19.354;2023-03-16T07:48:06;41.10;;;27.45;;
40284;SDS011;25997;50.214;19.354;2023-03-16T07:51:19;34.78;;;25.75;;
40284;SDS011;25997;50.214;19.354;2023-03-16T07:54:23;40.80;;;27.35;;
40284;SDS011;25997;50.214;19.354;2023-03-16T07:57:27;37.35;;;26.98;;
40284;SDS011;25997;50.214;19.354;2023-03-16T08:00:31;39.40;;;27.75;;
40284;SDS011;25997;50.214;19.354;2023-03-16T08:03:34;41.80;;;27.27;;
40284;SDS011;25997;50.214;19.354;2023-03-16T08:06:37;37.78;;;29.27;;
40284;SDS011;25997;50.214;19.354;2023-03-16T08:09:40;43.75;;;30.75;;
40284;SDS011;25997;50.214;19.354;2023-03-16T08:12:46;36.95;;;27.45;;
40284;SDS011;25997;50.214;19.354;2023-03-16T08:15:49;41.35;;;28.52;;
40284;SDS011;25997;50.214;19.354;2023-03-16T08:19:08;41.87;;;28.27;;
40284;SDS011;25997;50.214;19.354;2023-03-16T08:22:11;38.85;;;27.23;;
40284;SDS011;25997;50.214;19.354;2023-03-16T08:25:18;36.58;;;26.67;;
40284;SDS011;25997;50.214;19.354;2023-03-16T08:28:36;31.92;;;24.92;;
40284;SDS011;25997;50.214;19.354;2023-03-16T08:31:43;35.60;;;26.20;;
40284;SDS011;25997;50.214;19.354;2023-03-16T08:34:59;33.40;;;23.60;;
40284;SDS011;25997;50.214;19.354;2023-03-16T08:38:01;31.17;;;22.30;;
40284;SDS011;25997;50.214;19.354;2023-03-16T08:41:04;32.45;;;23.58;;
40284;SDS011;25997;50.214;19.354;2023-03-16T08:44:10;24.25;;;18.52;;
40284;SDS011;25997;50.214;19.354;2023-03-16T08:47:12;23.85;;;18.20;;
40284;SDS011;25997;50.214;19.354;2023-03-16T08:50:17;28.33;;;18.33;;
40284;SDS011;25997;50.214;19.354;2023-03-16T08:53:20;32.03;;;19.10;;
40284;SDS011;25997;50.214;19.354;2023-03-16T08:56:22;23.27;;;18.25;;
40284;SDS011;25997;50.214;19.354;2023-03-16T08:59:27;26.33;;;19.98;;
40284;SDS011;25997;50.214;19.354;2023-03-16T09:02:29;26.40;;;21.05;;
40284;SDS011;25997;50.214;19.354;2023-03-16T09:05:32;27.00;;;18.67;;
40284;SDS011;25997;50.214;19.354;2023-03-16T09:08:35;22.38;;;15.88;;
40284;SDS011;25997;50.214;19.354;2023-03-16T09:11:39;19.45;;;14.80;;
40284;SDS011;25997;50.214;19.354;2023-03-16T09:14:43;20.73;;;15.10;;
40284;SDS011;25997;50.214;19.354;2023-03-16T09:17:46;21.92;;;16.40;;
40284;SDS011;25997;50.214;19.354;2023-03-16T09:20:49;22.88;;;17.17;;
40284;SDS011;25997;50.214;19.354;2023-03-16T09:23:52;30.13;;;20.48;;
40284;SDS011;25997;50.214;19.354;2023-03-16T09:26:55;20.75;;;16.42;;
40284;SDS011;25997;50.214;19.354;2023-03-16T09:29:59;34.33;;;21.77;;
40284;SDS011;25997;50.214;19.354;2023-03-16T09:33:03;21.77;;;17.40;;
40284;SDS011;25997;50.214;19.354;2023-03-16T09:36:05;32.13;;;24.23;;
40284;SDS011;25997;50.214;19.354;2023-03-16T09:39:10;31.80;;;25.50;;
40284;SDS011;25997;50.214;19.354;2023-03-16T09:42:15;34.67;;;23.95;;
40284;SDS011;25997;50.214;19.354;2023-03-16T09:45:23;37.28;;;25.77;;
40284;SDS011;25997;50.214;19.354;2023-03-16T09:48:32;33.13;;;25.00;;
40284;SDS011;25997;50.214;19.354;2023-03-16T09:51:37;30.92;;;23.10;;
40284;SDS011;25997;50.214;19.354;2023-03-16T09:54:46;27.08;;;21.20;;
40284;SDS011;25997;50.214;19.354;2023-03-16T09:57:54;15.23;;;10.55;;
40284;SDS011;25997;50.214;19.354;2023-03-16T10:01:01;19.13;;;12.85;;
40284;SDS011;25997;50.214;19.354;2023-03-16T10:04:14;13.43;;;9.80;;
40284;SDS011;25997;50.214;19.354;2023-03-16T10:07:29;12.43;;;9.32;;
40284;SDS011;25997;50.214;19.354;2023-03-16T10:10:43;17.23;;;9.85;;
40284;SDS011;25997;50.214;19.354;2023-03-16T10:14:04;13.73;;;9.75;;
40284;SDS011;25997;50.214;19.354;2023-03-16T10:17:20;12.90;;;9.40;;
40284;SDS011;25997;50.214;19.354;2023-03-16T10:20:26;17.88;;;12.85;;
40284;SDS011;25997;50.214;19.354;2023-03-16T10:23:33;22.38;;;12.80;;
40284;SDS011;25997;50.214;19.354;2023-03-16T10:26:37;19.35;;;14.20;;
40284;SDS011;25997;50.214;19.354;2023-03-16T10:29:44;14.98;;;9.98;;
40284;SDS011;25997;50.214;19.354;2023-03-16T10:32:49;15.38;;;10.38;;
40284;SDS011;25997;50.214;19.354;2023-03-16T10:35:54;36.33;;;18.45;;
40284;SDS011;25997;50.214;19.354;2023-03-16T10:42:08;29.15;;;14.68;;
40284;SDS011;25997;50.214;19.354;2023-03-16T10:45:22;12.15;;;9.25;;
40284;SDS011;25997;50.214;19.354;2023-03-16T10:48:31;11.07;;;8.23;;
40284;SDS011;25997;50.214;19.354;2023-03-16T10:51:34;15.80;;;7.50;;
40284;SDS011;25997;50.214;19.354;2023-03-16T10:54:38;10.27;;;6.82;;
40284;SDS011;25997;50.214;19.354;2023-03-16T10:57:42;26.75;;;13.52;;
40284;SDS011;25997;50.214;19.354;2023-03-16T11:00:49;25.08;;;11.65;;
40284;SDS011;25997;50.214;19.354;2023-03-16T11:03:54;22.58;;;12.57;;
40284;SDS011;25997;50.214;19.354;2023-03-16T11:06:58;16.95;;;13.05;;
40284;SDS011;25997;50.214;19.354;2023-03-16T11:10:10;12.85;;;9.07;;
40284;SDS011;25997;50.214;19.354;2023-03-16T11:13:15;27.13;;;13.68;;
40284;SDS011;25997;50.214;19.354;2023-03-16T11:16:23;19.17;;;10.15;;
40284;SDS011;25997;50.214;19.354;2023-03-16T11:19:30;17.35;;;9.65;;
40284;SDS011;25997;50.214;19.354;2023-03-16T11:22:36;11.38;;;8.20;;
40284;SDS011;25997;50.214;19.354;2023-03-16T11:25:41;15.25;;;7.95;;
40284;SDS011;25997;50.214;19.354;2023-03-16T11:28:50;18.55;;;12.05;;
40284;SDS011;25997;50.214;19.354;2023-03-16T11:32:02;19.35;;;11.40;;
40284;SDS011;25997;50.214;19.354;2023-03-16T11:35:15;22.92;;;10.73;;
40284;SDS011;25997;50.214;19.354;2023-03-16T11:38:20;17.55;;;9.73;;
40284;SDS011;25997;50.214;19.354;2023-03-16T11:41:33;11.02;;;7.57;;
40284;SDS011;25997;50.214;19.354;2023-03-16T11:44:42;8.55;;;6.50;;
40284;SDS011;25997;50.214;19.354;2023-03-16T11:47:52;8.13;;;6.47;;
40284;SDS011;25997;50.214;19.354;2023-03-16T11:51:10;26.80;;;24.00;;
40284;SDS011;25997;50.214;19.354;2023-03-16T11:57:49;7.45;;;5.32;;
40284;SDS011;25997;50.214;19.354;2023-03-16T12:01:04;7.65;;;5.68;;
40284;SDS011;25997;50.214;19.354;2023-03-16T12:04:21;20.05;;;11.30;;
40284;SDS011;25997;50.214;19.354;2023-03-16T12:07:37;21.23;;;14.88;;
40284;SDS011;25997;50.214;19.354;2023-03-16T12:10:53;7.72;;;5.28;;
40284;SDS011;25997;50.214;19.354;2023-03-16T12:14:04;11.82;;;6.63;;
40284;SDS011;25997;50.214;19.354;2023-03-16T12:17:15;11.63;;;7.75;;
40284;SDS011;25997;50.214;19.354;2023-03-16T12:20:21;10.70;;;5.25;;
40284;SDS011;25997;50.214;19.354;2023-03-16T12:23:30;11.73;;;6.68;;
40284;SDS011;25997;50.214;19.354;2023-03-16T12:26:36;7.18;;;5.45;;
40284;SDS011;25997;50.214;19.354;2023-03-16T12:29:43;5.80;;;3.55;;
40284;SDS011;25997;50.214;19.354;2023-03-16T12:32:56;8.60;;;5.60;;
40284;SDS011;25997;50.214;19.354;2023-03-16T12:36:10;5.47;;;3.22;;
40284;SDS011;25997;50.214;19.354;2023-03-16T12:39:41;10.88;;;5.50;;
40284;SDS011;25997;50.214;19.354;2023-03-16T12:43:09;12.23;;;7.15;;
40284;SDS011;25997;50.214;19.354;2023-03-16T12:46:25;13.07;;;6.68;;
40284;SDS011;25997;50.214;19.354;2023-03-16T12:49:33;11.00;;;8.85;;
40284;SDS011;25997;50.214;19.354;2023-03-16T12:52:38;9.98;;;5.03;;
40284;SDS011;25997;50.214;19.354;2023-03-16T12:55:43;9.73;;;5.40;;
40284;SDS011;25997;50.214;19.354;2023-03-16T12:58:46;11.98;;;7.85;;
40284;SDS011;25997;50.214;19.354;2023-03-16T13:01:51;7.55;;;3.85;;
40284;SDS011;25997;50.214;19.354;2023-03-16T13:04:59;15.55;;;10.02;;
40284;SDS011;25997;50.214;19.354;2023-03-16T13:08:04;54.63;;;40.28;;
40284;SDS011;25997;50.214;19.354;2023-03-16T13:11:10;9.52;;;6.00;;
40284;SDS011;25997;50.214;19.354;2023-03-16T13:14:15;9.13;;;5.05;;
40284;SDS011;25997;50.214;19.354;2023-03-16T13:17:31;9.73;;;5.55;;
40284;SDS011;25997;50.214;19.354;2023-03-16T13:23:52;12.23;;;7.38;;
40284;SDS011;25997;50.214;19.354;2023-03-16T13:26:59;7.93;;;4.60;;
40284;SDS011;25997;50.214;19.354;2023-03-16T13:30:14;31.60;;;28.43;;
40284;SDS011;25997;50.214;19.354;2023-03-16T13:33:19;28.05;;;25.17;;
40284;SDS011;25997;50.214;19.354;2023-03-16T13:36:25;14.18;;;9.18;;
40284;SDS011;25997;50.214;19.354;2023-03-16T13:39:29;13.07;;;8.25;;
40284;SDS011;25997;50.214;19.354;2023-03-16T13:42:34;21.75;;;11.50;;
40284;SDS011;25997;50.214;19.354;2023-03-16T13:45:37;37.97;;;20.52;;
40284;SDS011;25997;50.214;19.354;2023-03-16T13:48:39;16.65;;;10.23;;
40284;SDS011;25997;50.214;19.354;2023-03-16T13:51:42;7.85;;;4.53;;
40284;SDS011;25997;50.214;19.354;2023-03-16T13:54:45;14.68;;;7.20;;
40284;SDS011;25997;50.214;19.354;2023-03-16T13:57:50;28.02;;;20.40;;
40284;SDS011;25997;50.214;19.354;2023-03-16T14:00:54;22.92;;;15.70;;
40284;SDS011;25997;50.214;19.354;2023-03-16T14:03:58;15.00;;;7.78;;
40284;SDS011;25997;50.214;19.354;2023-03-16T14:07:12;22.13;;;14.00;;
40284;SDS011;25997;50.214;19.354;2023-03-16T14:10:17;21.95;;;12.38;;
40284;SDS011;25997;50.214;19.354;2023-03-16T14:13:23;12.05;;;6.10;;
40284;SDS011;25997;50.214;19.354;2023-03-16T14:16:32;16.77;;;9.95;;
40284;SDS011;25997;50.214;19.354;2023-03-16T14:19:37;27.05;;;17.67;;
40284;SDS011;25997;50.214;19.354;2023-03-16T14:22:43;41.95;;;30.38;;
40284;SDS011;25997;50.214;19.354;2023-03-16T14:25:47;44.17;;;28.88;;
40284;SDS011;25997;50.214;19.354;2023-03-16T14:28:55;52.00;;;35.67;;
40284;SDS011;25997;50.214;19.354;2023-03-16T14:32:16;51.83;;;38.22;;
40284;SDS011;25997;50.214;19.354;2023-03-16T14:35:24;22.48;;;17.55;;
40284;SDS011;25997;50.214;19.354;2023-03-16T14:38:29;29.15;;;20.40;;
40284;SDS011;25997;50.214;19.354;2023-03-16T14:41:33;53.17;;;38.50;;
40284;SDS011;25997;50.214;19.354;2023-03-16T14:44:37;11.30;;;6.35;;
40284;SDS011;25997;50.214;19.354;2023-03-16T14:47:41;14.20;;;7.88;;
40284;SDS011;25997;50.214;19.354;2023-03-16T14:50:44;6.97;;;4.00;;
40284;SDS011;25997;50.214;19.354;2023-03-16T14:53:55;19.50;;;13.75;;
40284;SDS011;25997;50.214;19.354;2023-03-16T14:56:58;8.77;;;5.05;;
40284;SDS011;25997;50.214;19.354;2023-03-16T15:00:05;6.80;;;3.92;;
40284;SDS011;25997;50.214;19.354;2023-03-16T15:03:09;7.25;;;3.60;;
40284;SDS011;25997;50.214;19.354;2023-03-16T15:06:16;9.85;;;6.38;;
40284;SDS011;25997;50.214;19.354;2023-03-16T15:09:26;11.73;;;8.07;;
40284;SDS011;25997;50.214;19.354;2023-03-16T15:12:33;16.17;;;11.70;;
40284;SDS011;25997;50.214;19.354;2023-03-16T15:15:39;13.75;;;8.23;;
40284;SDS011;25997;50.214;19.354;2023-03-16T15:18:42;9.95;;;6.55;;
40284;SDS011;25997;50.214;19.354;2023-03-16T15:21:44;10.60;;;4.53;;
40284;SDS011;25997;50.214;19.354;2023-03-16T15:24:47;9.07;;;5.53;;
40284;SDS011;25997;50.214;19.354;2023-03-16T15:27:49;7.88;;;3.17;;
40284;SDS011;25997;50.214;19.354;2023-03-16T15:30:55;6.50;;;3.40;;
40284;SDS011;25997;50.214;19.354;2023-03-16T15:33:58;7.10;;;4.28;;
40284;SDS011;25997;50.214;19.354;2023-03-16T15:37:01;8.50;;;5.20;;
40284;SDS011;25997;50.214;19.354;2023-03-16T15:40:09;12.10;;;7.88;;
40284;SDS011;25997;50.214;19.354;2023-03-16T15:43:17;52.33;;;39.35;;
40284;SDS011;25997;50.214;19.354;2023-03-16T15:46:22;30.08;;;21.88;;
40284;SDS011;25997;50.214;19.354;2023-03-16T15:49:24;32.97;;;23.55;;
40284;SDS011;25997;50.214;19.354;2023-03-16T15:52:29;50.83;;;35.80;;
40284;SDS011;25997;50.214;19.354;2023-03-16T15:55:35;47.67;;;33.15;;
40284;SDS011;25997;50.214;19.354;2023-03-16T15:58:39;75.28;;;38.92;;
40284;SDS011;25997;50.214;19.354;2023-03-16T16:01:46;118.38;;;64.85;;
40284;SDS011;25997;50.214;19.354;2023-03-16T16:04:49;171.35;;;97.18;;
40284;SDS011;25997;50.214;19.354;2023-03-16T16:07:52;32.55;;;20.35;;
40284;SDS011;25997;50.214;19.354;2023-03-16T16:10:56;113.22;;;76.05;;
40284;SDS011;25997;50.214;19.354;2023-03-16T16:13:58;34.47;;;21.30;;
40284;SDS011;25997;50.214;19.354;2023-03-16T16:17:04;13.13;;;8.23;;
40284;SDS011;25997;50.214;19.354;2023-03-16T16:20:11;11.05;;;8.00;;
40284;SDS011;25997;50.214;19.354;2023-03-16T16:23:20;14.07;;;7.68;;
40284;SDS011;25997;50.214;19.354;2023-03-16T16:26:24;9.15;;;5.63;;
40284;SDS011;25997;50.214;19.354;2023-03-16T16:29:29;6.22;;;4.68;;
40284;SDS011;25997;50.214;19.354;2023-03-16T16:32:34;11.18;;;6.93;;
40284;SDS011;25997;50.214;19.354;2023-03-16T16:35:37;67.03;;;36.20;;
40284;SDS011;25997;50.214;19.354;2023-03-16T16:38:41;24.70;;;19.63;;
40284;SDS011;25997;50.214;19.354;2023-03-16T16:41:43;68.90;;;46.90;;
40284;SDS011;25997;50.214;19.354;2023-03-16T16:44:46;123.60;;;87.45;;
40284;SDS011;25997;50.214;19.354;2023-03-16T16:47:50;358.95;;;253.43;;
40284;SDS011;25997;50.214;19.354;2023-03-16T16:50:55;92.65;;;70.28;;
40284;SDS011;25997;50.214;19.354;2023-03-16T16:53:58;60.78;;;51.65;;
40284;SDS011;25997;50.214;19.354;2023-03-16T16:57:01;50.10;;;33.03;;
40284;SDS011;25997;50.214;19.354;2023-03-16T17:00:06;40.85;;;31.50;;
40284;SDS011;25997;50.214;19.354;2023-03-16T17:03:20;62.35;;;34.35;;
40284;SDS011;25997;50.214;19.354;2023-03-16T17:06:24;24.45;;;17.48;;
40284;SDS011;25997;50.214;19.354;2023-03-16T17:09:28;35.55;;;25.27;;
40284;SDS011;25997;50.214;19.354;2023-03-16T17:12:30;113.10;;;65.72;;
40284;SDS011;25997;50.214;19.354;2023-03-16T17:15:35;99.28;;;61.10;;
40284;SDS011;25997;50.214;19.354;2023-03-16T17:18:39;104.43;;;61.72;;
40284;SDS011;25997;50.214;19.354;2023-03-16T17:21:41;94.03;;;58.67;;
40284;SDS011;25997;50.214;19.354;2023-03-16T17:24:45;74.13;;;56.00;;
40284;SDS011;25997;50.214;19.354;2023-03-16T17:27:47;68.25;;;45.92;;
40284;SDS011;25997;50.214;19.354;2023-03-16T17:30:53;136.07;;;85.45;;
40284;SDS011;25997;50.214;19.354;2023-03-16T17:33:57;25.73;;;15.90;;
40284;SDS011;25997;50.214;19.354;2023-03-16T17:36:59;24.70;;;14.85;;
40284;SDS011;25997;50.214;19.354;2023-03-16T17:40:02;45.42;;;32.67;;
40284;SDS011;25997;50.214;19.354;2023-03-16T17:43:07;28.05;;;19.70;;
40284;SDS011;25997;50.214;19.354;2023-03-16T17:46:16;109.47;;;74.40;;
40284;SDS011;25997;50.214;19.354;2023-03-16T17:49:22;92.03;;;59.08;;
40284;SDS011;25997;50.214;19.354;2023-03-16T17:52:27;32.53;;;19.52;;
40284;SDS011;25997;50.214;19.354;2023-03-16T17:55:31;22.58;;;15.30;;
40284;SDS011;25997;50.214;19.354;2023-03-16T17:58:33;80.68;;;72.40;;
40284;SDS011;25997;50.214;19.354;2023-03-16T18:01:36;29.70;;;23.00;;
40284;SDS011;25997;50.214;19.354;2023-03-16T18:04:40;27.13;;;18.08;;
40284;SDS011;25997;50.214;19.354;2023-03-16T18:07:43;52.47;;;29.27;;